createdAt,value
2023-01-15T00:01:56.287Z,0.77
2023-01-15T00:04:23.023Z,0.52
2023-01-15T00:06:50.528Z,0.85
2023-01-15T00:09:17.361Z,0.70
2023-01-15T00:11:44.120Z,0.60
2023-01-15T00:14:12.359Z,0.45
2023-01-15T00:16:40.647Z,0.90
2023-01-15T00:19:10.916Z,1.70
2023-01-15T00:21:38.233Z,0.50
2023-01-15T00:24:23.887Z,1.15
2023-01-15T00:27:09.431Z,0.75
2023-01-15T00:29:36.173Z,0.95
2023-01-15T00:32:06.131Z,0.40
2023-01-15T00:34:33.894Z,0.70
2023-01-15T00:37:01.609Z,0.50
2023-01-15T00:39:28.410Z,0.40
2023-01-15T00:41:56.233Z,0.75
2023-01-15T00:44:23.479Z,1.27
2023-01-15T00:46:50.244Z,0.80
2023-01-15T00:49:17.435Z,0.50
2023-01-15T00:51:44.105Z,0.85
2023-01-15T00:54:10.890Z,0.43
2023-01-15T00:56:37.656Z,0.85
2023-01-15T00:59:05.724Z,1.42
2023-01-15T01:01:32.904Z,1.40
2023-01-15T01:04:00.188Z,0.50
2023-01-15T01:06:27.754Z,0.60
2023-01-15T01:08:55.463Z,0.57
2023-01-15T01:11:26.676Z,0.70
2023-01-15T01:13:54.996Z,0.70
2023-01-15T01:16:32.020Z,0.80
2023-01-15T01:19:00.046Z,0.63
2023-01-15T01:21:27.577Z,2.03
2023-01-15T01:23:54.966Z,0.63
2023-01-15T01:26:21.785Z,0.90
2023-01-15T01:28:52.900Z,0.60
2023-01-15T01:31:20.683Z,0.75
2023-01-15T01:33:55.836Z,0.90
2023-01-15T01:36:31.878Z,0.60
2023-01-15T01:38:59.530Z,1.00
2023-01-15T01:41:27.306Z,0.70
2023-01-15T01:44:03.421Z,0.82
2023-01-15T01:46:32.983Z,1.08
2023-01-15T01:49:21.200Z,0.80
2023-01-15T01:51:55.257Z,0.68
2023-01-15T01:54:25.398Z,1.58
2023-01-15T01:56:52.409Z,0.57
2023-01-15T01:59:20.847Z,0.85
2023-01-15T02:01:48.573Z,0.77
2023-01-15T02:04:17.767Z,0.95
2023-01-15T02:06:44.543Z,0.82
2023-01-15T02:09:11.611Z,0.82
2023-01-15T02:11:38.372Z,1.88
2023-01-15T02:14:26.414Z,0.45
2023-01-15T02:17:06.676Z,1.40
2023-01-15T02:19:51.438Z,1.15
2023-01-15T02:22:33.713Z,1.13
2023-01-15T02:25:21.433Z,0.82
2023-01-15T02:27:54.846Z,1.63
2023-01-15T02:30:24.521Z,0.82
2023-01-15T02:33:15.146Z,1.10
2023-01-15T02:35:48.227Z,1.20
2023-01-15T02:38:19.514Z,0.80
2023-01-15T02:40:48.388Z,1.00
2023-01-15T02:43:17.473Z,1.02
2023-01-15T02:45:48.572Z,0.85
2023-01-15T02:48:19.076Z,0.47
2023-01-15T02:50:51.033Z,0.88
2023-01-15T02:53:25.128Z,0.65
2023-01-15T02:55:55.169Z,0.90
2023-01-15T02:58:28.447Z,0.57
2023-01-15T03:00:58.044Z,0.80
2023-01-15T03:03:58.228Z,0.55
2023-01-15T03:06:36.122Z,0.70
2023-01-15T03:09:03.679Z,0.85
2023-01-15T03:11:33.015Z,1.77
2023-01-15T03:14:04.836Z,0.68
2023-01-15T03:16:40.640Z,2.00
2023-01-15T03:19:31.155Z,1.20
2023-01-15T03:22:32.632Z,0.70
2023-01-15T03:25:16.159Z,0.68
2023-01-15T03:27:42.943Z,0.60
2023-01-15T03:30:13.151Z,0.65
2023-01-15T03:32:40.113Z,0.73
2023-01-15T03:35:30.684Z,0.77
2023-01-15T03:37:57.419Z,1.38
2023-01-15T03:40:24.265Z,0.95
2023-01-15T03:43:16.737Z,0.88
2023-01-15T03:45:47.220Z,0.70
2023-01-15T03:48:31.111Z,0.55
2023-01-15T03:51:22.179Z,1.00
2023-01-15T03:53:53.070Z,0.63
2023-01-15T03:56:38.413Z,2.38
2023-01-15T03:59:16.275Z,0.63
2023-01-15T04:01:45.468Z,1.00
2023-01-15T04:04:14.885Z,0.77
2023-01-15T04:06:43.412Z,1.75
2023-01-15T04:09:12.279Z,0.50
2023-01-15T04:11:39.409Z,0.65
2023-01-15T04:14:06.854Z,0.82
2023-01-15T04:16:34.976Z,1.27
2023-01-15T04:19:02.124Z,1.25
2023-01-15T04:21:28.944Z,0.82
2023-01-15T04:23:55.628Z,0.80
2023-01-15T04:26:22.765Z,1.42
2023-01-15T04:28:49.619Z,0.57
2023-01-15T04:31:16.697Z,1.35
2023-01-15T04:33:43.445Z,1.00
2023-01-15T04:36:10.521Z,0.50
2023-01-15T04:38:39.977Z,0.70
2023-01-15T04:41:25.325Z,1.20
2023-01-15T04:44:07.414Z,0.85
2023-01-15T04:46:46.042Z,1.77
2023-01-15T04:49:17.598Z,1.20
2023-01-15T04:51:45.164Z,0.97
2023-01-15T04:54:13.810Z,0.50
2023-01-15T04:56:43.677Z,1.17
2023-01-15T04:59:10.706Z,0.60
2023-01-15T05:01:38.122Z,0.65
2023-01-15T05:04:05.449Z,0.80
2023-01-15T05:06:32.568Z,1.27
2023-01-15T05:09:00.620Z,0.60
2023-01-15T05:11:28.220Z,0.77
2023-01-15T05:13:55.370Z,0.50
2023-01-15T05:16:27.119Z,0.77
2023-01-15T05:18:56.745Z,1.10
2023-01-15T05:21:35.377Z,0.80
2023-01-15T05:24:04.206Z,0.60
2023-01-15T05:26:32.698Z,0.43
2023-01-15T05:29:00.633Z,0.60
2023-01-15T05:31:28.617Z,0.82
2023-01-15T05:33:56.326Z,0.52
2023-01-15T05:36:25.764Z,1.05
2023-01-15T05:38:54.100Z,0.70
2023-01-15T05:41:41.161Z,0.88
2023-01-15T05:44:11.067Z,0.68
2023-01-15T05:46:39.736Z,0.70
2023-01-15T05:49:09.180Z,0.93
2023-01-15T05:51:36.873Z,0.50
2023-01-15T05:54:04.983Z,0.60
2023-01-15T05:56:31.887Z,0.50
2023-01-15T05:58:58.575Z,0.65
2023-01-15T06:01:25.300Z,1.13
2023-01-15T06:03:53.591Z,0.88
2023-01-15T06:06:20.620Z,0.10
2023-01-15T06:08:47.304Z,1.05
2023-01-15T06:11:14.048Z,1.13
2023-01-15T06:13:41.214Z,0.88
2023-01-15T06:16:10.781Z,0.60
2023-01-15T06:18:41.128Z,0.65
2023-01-15T06:21:09.989Z,0.85
2023-01-15T06:23:37.465Z,0.73
2023-01-15T06:26:07.542Z,0.93
2023-01-15T06:28:34.894Z,0.90
2023-01-15T06:31:05.282Z,0.80
2023-01-15T06:33:32.103Z,0.93
2023-01-15T06:35:58.800Z,1.15
2023-01-15T06:38:25.488Z,0.38
2023-01-15T06:40:52.150Z,0.35
2023-01-15T06:43:37.608Z,0.40
2023-01-15T06:46:22.899Z,0.75
2023-01-15T06:48:49.760Z,0.28
2023-01-15T06:51:19.763Z,0.55
2023-01-15T06:53:47.093Z,0.93
2023-01-15T06:56:15.222Z,0.43
2023-01-15T06:58:42.938Z,0.77
2023-01-15T07:01:11.270Z,0.70
2023-01-15T07:03:38.190Z,1.17
2023-01-15T07:06:09.370Z,0.90
2023-01-15T07:08:36.379Z,0.40
2023-01-15T07:11:05.260Z,0.57
2023-01-15T07:13:32.080Z,0.52
2023-01-15T07:16:01.205Z,0.60
2023-01-15T07:18:29.657Z,1.10
2023-01-15T07:20:57.719Z,0.38
2023-01-15T07:23:25.710Z,0.50
2023-01-15T07:25:53.734Z,0.38
2023-01-15T07:28:22.149Z,0.70
2023-01-15T07:30:48.971Z,0.57
2023-01-15T07:33:15.711Z,0.60
2023-01-15T07:35:45.312Z,1.00
2023-01-15T07:38:12.077Z,0.35
2023-01-15T07:40:39.067Z,0.47
2023-01-15T07:43:24.329Z,0.60
2023-01-15T07:46:09.790Z,0.90
2023-01-15T07:48:55.235Z,0.50
2023-01-15T07:51:22.016Z,1.25
2023-01-15T07:53:48.692Z,0.43
2023-01-15T07:56:15.880Z,0.43
2023-01-15T07:58:44.529Z,0.65
2023-01-15T08:01:11.350Z,0.95
2023-01-15T08:03:38.461Z,0.50
2023-01-15T08:06:05.311Z,0.60
2023-01-15T08:08:31.968Z,0.90
2023-01-15T08:11:20.634Z,0.80
2023-01-15T08:14:06.105Z,0.80
2023-01-15T08:16:36.162Z,0.50
2023-01-15T08:19:03.951Z,1.00
2023-01-15T08:21:30.634Z,1.08
2023-01-15T08:23:57.362Z,1.00
2023-01-15T08:26:24.095Z,2.83
2023-01-15T08:28:50.820Z,0.95
2023-01-15T08:31:17.552Z,0.63
2023-01-15T08:33:44.300Z,1.00
2023-01-15T08:36:11.203Z,1.38
2023-01-15T08:38:38.062Z,0.85
2023-01-15T08:41:04.843Z,1.67
2023-01-15T08:43:35.188Z,0.70
2023-01-15T08:46:04.541Z,1.60
2023-01-15T08:48:32.475Z,0.98
2023-01-15T08:50:59.438Z,1.10
2023-01-15T08:53:26.454Z,1.40
2023-01-15T08:55:53.140Z,0.55
2023-01-15T08:58:19.802Z,2.05
2023-01-15T09:00:46.661Z,0.90
2023-01-15T09:03:13.504Z,0.70
2023-01-15T09:05:40.279Z,1.58
2023-01-15T09:08:07.648Z,0.85
2023-01-15T09:10:34.958Z,0.93
2023-01-15T09:13:02.980Z,0.90
2023-01-15T09:15:31.632Z,1.63
2023-01-15T09:17:58.651Z,1.08
2023-01-15T09:20:25.632Z,0.73
2023-01-15T09:22:52.776Z,0.82
2023-01-15T09:25:20.126Z,1.25
2023-01-15T09:27:49.078Z,2.95
2023-01-15T09:30:20.911Z,1.73
2023-01-15T09:32:48.786Z,1.20
2023-01-15T09:35:16.027Z,1.33
2023-01-15T09:37:42.821Z,1.50
2023-01-15T09:40:29.740Z,0.88
2023-01-15T09:43:04.441Z,1.02
2023-01-15T09:45:40.107Z,0.82
2023-01-15T09:48:27.312Z,0.88
2023-01-15T09:51:12.117Z,1.00
2023-01-15T09:54:08.155Z,0.68
2023-01-15T09:56:37.402Z,0.75
2023-01-15T09:59:18.514Z,0.77
2023-01-15T10:01:45.471Z,1.15
2023-01-15T10:04:56.722Z,1.00
2023-01-15T10:07:23.488Z,1.42
2023-01-15T10:10:04.350Z,1.20
2023-01-15T10:12:35.968Z,1.98
2023-01-15T10:15:13.075Z,1.43
2023-01-15T10:17:41.462Z,2.50
2023-01-15T10:20:15.664Z,1.17
2023-01-15T10:23:02.835Z,1.58
2023-01-15T10:25:38.224Z,1.05
2023-01-15T10:28:17.998Z,1.38
2023-01-15T10:30:50.503Z,1.67
2023-01-15T10:33:30.565Z,0.98
2023-01-15T10:36:11.496Z,1.45
2023-01-15T10:38:45.332Z,1.00
2023-01-15T10:41:27.886Z,1.50
2023-01-15T10:44:05.343Z,1.52
2023-01-15T10:46:38.405Z,1.17
2023-01-15T10:49:17.648Z,1.42
2023-01-15T10:51:52.450Z,1.55
2023-01-15T10:54:42.359Z,1.10
2023-01-15T10:57:21.296Z,2.35
2023-01-15T10:59:59.905Z,1.48
2023-01-15T11:02:38.070Z,1.77
2023-01-15T11:05:05.758Z,1.25
2023-01-15T11:07:43.909Z,1.73
2023-01-15T11:10:23.041Z,1.08
2023-01-15T11:13:14.076Z,0.80
2023-01-15T11:16:03.673Z,0.90
2023-01-15T11:18:53.651Z,1.63
2023-01-15T11:21:23.253Z,1.00
2023-01-15T11:23:51.640Z,1.45
2023-01-15T11:26:23.110Z,1.23
2023-01-15T11:28:50.263Z,0.88
2023-01-15T11:31:17.578Z,1.20
2023-01-15T11:33:55.539Z,1.30
2023-01-15T11:36:27.503Z,1.35
2023-01-15T11:38:54.605Z,0.82
2023-01-15T11:41:46.840Z,1.77
2023-01-15T11:44:33.383Z,1.15
2023-01-15T11:47:19.847Z,1.63
2023-01-15T11:50:14.161Z,1.83
2023-01-15T11:52:50.787Z,1.40
2023-01-15T11:55:24.146Z,1.50
2023-01-15T11:57:51.984Z,2.50
2023-01-15T12:00:32.531Z,1.50
2023-01-15T12:03:18.708Z,1.58
2023-01-15T12:05:53.737Z,1.45
2023-01-15T12:08:44.724Z,2.28
2023-01-15T12:11:26.620Z,1.95
2023-01-15T12:14:25.480Z,1.25
2023-01-15T12:17:11.632Z,1.25
2023-01-15T12:19:55.991Z,0.80
2023-01-15T12:22:33.612Z,1.75
2023-01-15T12:25:11.284Z,1.58
2023-01-15T12:27:53.123Z,1.83
2023-01-15T12:30:28.358Z,3.03
2023-01-15T12:33:13.603Z,1.10
2023-01-15T12:36:06.915Z,1.73
2023-01-15T12:38:47.765Z,1.30
2023-01-15T12:41:25.288Z,1.27
2023-01-15T12:44:15.344Z,1.20
2023-01-15T12:46:45.326Z,1.20
2023-01-15T12:49:42.916Z,1.60
2023-01-15T12:52:24.159Z,1.65
2023-01-15T12:55:12.476Z,1.55
2023-01-15T12:57:43.751Z,1.80
2023-01-15T13:00:16.972Z,1.30
2023-01-15T13:03:25.539Z,1.98
2023-01-15T13:06:00.234Z,1.15
2023-01-15T13:08:42.249Z,1.73
2023-01-15T13:11:12.713Z,1.65
2023-01-15T13:13:57.822Z,2.92
2023-01-15T13:16:36.465Z,0.98
2023-01-15T13:19:09.177Z,1.98
2023-01-15T13:21:37.567Z,1.58
2023-01-15T13:24:24.473Z,1.58
2023-01-15T13:27:21.038Z,1.63
2023-01-15T13:30:09.462Z,2.17
2023-01-15T13:32:43.969Z,1.10
2023-01-15T13:35:31.779Z,1.83
2023-01-15T13:38:01.871Z,1.92
2023-01-15T13:40:40.067Z,1.10
2023-01-15T13:43:09.411Z,2.13
2023-01-15T13:45:47.531Z,1.00
2023-01-15T13:48:23.925Z,1.30
2023-01-15T13:50:59.393Z,1.35
2023-01-15T13:53:33.757Z,1.80
2023-01-15T13:56:10.301Z,1.33
2023-01-15T13:58:53.718Z,1.20
2023-01-15T14:01:23.369Z,1.23
2023-01-15T14:04:17.485Z,1.42
2023-01-15T14:06:49.705Z,0.95
2023-01-15T14:09:22.120Z,1.10
2023-01-15T14:12:07.543Z,2.00
2023-01-15T14:14:56.143Z,2.00
2023-01-15T14:17:51.096Z,1.25
2023-01-15T14:20:44.431Z,1.35
2023-01-15T14:23:18.299Z,0.77
2023-01-15T14:26:02.726Z,1.58
2023-01-15T14:28:48.094Z,1.42
2023-01-15T14:31:26.263Z,2.08
2023-01-15T14:34:01.930Z,1.00
2023-01-15T14:36:33.909Z,1.17
2023-01-15T14:39:03.212Z,1.05
2023-01-15T14:41:59.011Z,1.17
2023-01-15T14:44:31.670Z,1.15
2023-01-15T14:47:01.619Z,0.88
2023-01-15T14:49:31.339Z,1.52
2023-01-15T14:51:59.005Z,1.83
2023-01-15T14:54:26.883Z,0.85
2023-01-15T14:56:57.036Z,2.03
2023-01-15T14:59:28.592Z,0.70
2023-01-15T15:02:00.613Z,1.35
2023-01-15T15:04:30.488Z,1.00
2023-01-15T15:07:10.884Z,1.08
2023-01-15T15:09:37.641Z,1.35
2023-01-15T15:12:43.326Z,2.60
2023-01-15T15:15:25.158Z,1.60
2023-01-15T15:18:16.917Z,1.30
2023-01-15T15:21:02.641Z,1.45
2023-01-15T15:23:38.017Z,1.10
2023-01-15T15:26:17.480Z,1.50
2023-01-15T15:28:55.664Z,1.52
2023-01-15T15:31:26.093Z,2.22
2023-01-15T15:33:56.779Z,1.83
2023-01-15T15:36:26.660Z,1.45
2023-01-15T15:39:04.725Z,1.25
2023-01-15T15:41:54.679Z,1.08
2023-01-15T15:44:55.805Z,1.08
2023-01-15T15:47:44.193Z,1.17
2023-01-15T15:50:40.196Z,1.27
2023-01-15T15:53:16.521Z,1.20
2023-01-15T15:55:45.813Z,1.30
2023-01-15T15:58:21.964Z,1.45
2023-01-15T16:00:49.290Z,1.67
2023-01-15T16:03:21.426Z,1.60
2023-01-15T16:06:07.925Z,0.95
2023-01-15T16:08:35.959Z,1.65
2023-01-15T16:11:06.635Z,1.45
2023-01-15T16:13:38.394Z,1.30
2023-01-15T16:16:08.151Z,1.33
2023-01-15T16:18:38.310Z,1.27
2023-01-15T16:21:05.464Z,1.50
2023-01-15T16:23:32.248Z,1.90
2023-01-15T16:26:23.102Z,3.30
2023-01-15T16:28:55.291Z,1.20
2023-01-15T16:31:23.071Z,1.25
2023-01-15T16:33:58.749Z,0.75
2023-01-15T16:36:27.949Z,1.42
2023-01-15T16:38:55.761Z,1.73
2023-01-15T16:41:42.454Z,1.05
2023-01-15T16:44:25.889Z,2.95
2023-01-15T16:46:59.069Z,1.48
2023-01-15T16:49:29.391Z,1.90
2023-01-15T16:51:58.650Z,1.25
2023-01-15T16:54:31.586Z,1.55
2023-01-15T16:56:59.568Z,1.50
2023-01-15T16:59:29.873Z,1.42
2023-01-15T17:02:02.548Z,2.13
2023-01-15T17:04:35.846Z,2.88
2023-01-15T17:07:14.191Z,2.40
2023-01-15T17:09:53.340Z,3.63
2023-01-15T17:12:34.375Z,3.30
2023-01-15T17:15:16.551Z,2.70
2023-01-15T17:17:48.155Z,2.10
2023-01-15T17:20:16.274Z,2.37
2023-01-15T17:22:45.796Z,2.50
2023-01-15T17:25:31.806Z,2.47
2023-01-15T17:27:59.814Z,2.45
2023-01-15T17:30:31.302Z,2.25
2023-01-15T17:32:59.237Z,2.87
2023-01-15T17:35:27.482Z,2.15
2023-01-15T17:37:54.513Z,1.80
2023-01-15T17:40:22.079Z,1.70
2023-01-15T17:42:49.143Z,2.42
2023-01-15T17:45:25.402Z,1.70
2023-01-15T17:47:52.225Z,2.53
2023-01-15T17:50:19.104Z,2.15
2023-01-15T17:52:47.429Z,2.70
2023-01-15T17:55:35.215Z,3.22
2023-01-15T17:58:20.937Z,3.22
2023-01-15T18:01:06.838Z,2.45
2023-01-15T18:03:53.100Z,1.65
2023-01-15T18:06:21.703Z,3.15
2023-01-15T18:08:55.345Z,3.22
2023-01-15T18:11:22.251Z,2.25
2023-01-15T18:13:49.013Z,2.42
2023-01-15T18:16:17.230Z,2.33
2023-01-15T18:18:44.068Z,2.33
2023-01-15T18:21:10.794Z,2.30
2023-01-15T18:23:39.552Z,2.85
2023-01-15T18:26:08.286Z,1.73
2023-01-15T18:28:36.165Z,1.65
2023-01-15T18:31:03.540Z,2.13
2023-01-15T18:33:31.049Z,2.08
2023-01-15T18:36:07.438Z,1.48
2023-01-15T18:38:36.488Z,3.08
2023-01-15T18:41:12.321Z,2.72
2023-01-15T18:43:57.743Z,2.05
2023-01-15T18:46:43.512Z,2.60
2023-01-15T18:49:10.292Z,1.90
2023-01-15T18:51:37.041Z,2.33
2023-01-15T18:54:06.170Z,1.75
2023-01-15T18:56:39.158Z,1.95
2023-01-15T18:59:12.543Z,2.10
2023-01-15T19:01:40.808Z,1.83
2023-01-15T19:04:10.852Z,1.50
2023-01-15T19:06:39.642Z,1.63
2023-01-15T19:09:08.197Z,1.30
2023-01-15T19:11:35.308Z,2.03
2023-01-15T19:14:20.666Z,2.30
2023-01-15T19:17:06.145Z,1.75
2023-01-15T19:19:32.892Z,1.50
2023-01-15T19:22:18.121Z,1.15
2023-01-15T19:24:46.348Z,1.75
2023-01-15T19:27:13.339Z,1.42
2023-01-15T19:29:40.044Z,1.80
2023-01-15T19:32:06.706Z,2.20
2023-01-15T19:34:34.397Z,1.85
2023-01-15T19:37:01.625Z,1.95
2023-01-15T19:39:29.037Z,1.27
2023-01-15T19:42:15.295Z,1.55
2023-01-15T19:45:00.752Z,1.92
2023-01-15T19:47:52.693Z,1.80
2023-01-15T19:50:31.295Z,2.35
2023-01-15T19:52:57.956Z,1.63
2023-01-15T19:55:25.873Z,2.03
2023-01-15T19:57:58.210Z,2.40
2023-01-15T20:00:25.787Z,1.38
2023-01-15T20:02:52.705Z,1.98
2023-01-15T20:05:20.068Z,2.20
2023-01-15T20:07:46.854Z,2.90
2023-01-15T20:10:16.448Z,1.77
2023-01-15T20:13:02.264Z,1.95
2023-01-15T20:15:30.083Z,1.85
2023-01-15T20:17:57.830Z,2.65
2023-01-15T20:20:26.200Z,2.25
2023-01-15T20:22:55.912Z,1.42
2023-01-15T20:25:22.896Z,2.63
2023-01-15T20:27:49.715Z,1.60
2023-01-15T20:30:20.035Z,3.67
2023-01-15T20:32:49.993Z,1.70
2023-01-15T20:35:20.886Z,2.92
2023-01-15T20:37:48.496Z,2.75
2023-01-15T20:40:17.955Z,2.05
2023-01-15T20:43:03.175Z,1.83
2023-01-15T20:45:29.962Z,1.80
2023-01-15T20:48:12.280Z,2.13
2023-01-15T20:51:00.446Z,2.20
2023-01-15T20:53:29.913Z,2.45
2023-01-15T20:55:57.805Z,2.35
2023-01-15T20:58:25.066Z,2.60
2023-01-15T21:00:52.770Z,2.25
2023-01-15T21:03:20.594Z,2.45
2023-01-15T21:05:48.282Z,3.08
2023-01-15T21:08:15.045Z,2.00
2023-01-15T21:10:41.864Z,1.65
2023-01-15T21:13:08.861Z,1.33
2023-01-15T21:15:35.701Z,2.33
2023-01-15T21:18:02.447Z,2.35
2023-01-15T21:20:30.362Z,1.55
2023-01-15T21:22:58.054Z,2.05
2023-01-15T21:25:25.307Z,2.10
2023-01-15T21:27:52.289Z,4.18
2023-01-15T21:30:20.833Z,3.05
2023-01-15T21:32:48.610Z,2.22
2023-01-15T21:35:15.443Z,2.63
2023-01-15T21:37:42.133Z,2.85
2023-01-15T21:40:09.790Z,2.03
2023-01-15T21:42:55.144Z,2.83
2023-01-15T21:45:22.208Z,2.13
2023-01-15T21:47:49.001Z,2.90
2023-01-15T21:50:17.568Z,1.45
2023-01-15T21:52:44.384Z,1.95
2023-01-15T21:55:11.106Z,2.10
2023-01-15T21:57:38.288Z,4.80
2023-01-15T22:00:06.381Z,1.95
2023-01-15T22:02:34.574Z,2.38
2023-01-15T22:05:01.631Z,2.20
2023-01-15T22:07:28.295Z,1.42
2023-01-15T22:09:54.991Z,1.60
2023-01-15T22:12:21.767Z,3.17
2023-01-15T22:14:49.564Z,3.92
2023-01-15T22:17:16.309Z,1.80
2023-01-15T22:19:43.011Z,2.50
2023-01-15T22:22:10.960Z,2.78
2023-01-15T22:24:39.784Z,3.28
2023-01-15T22:27:08.182Z,1.83
2023-01-15T22:29:38.917Z,2.38
2023-01-15T22:32:07.032Z,2.15
2023-01-15T22:34:33.863Z,2.17
2023-01-15T22:37:00.713Z,2.05
2023-01-15T22:39:27.839Z,2.38
2023-01-15T22:42:13.413Z,2.60
2023-01-15T22:44:40.243Z,4.35
2023-01-15T22:47:06.963Z,3.17
2023-01-15T22:49:33.694Z,2.78
2023-01-15T22:52:00.429Z,3.75
2023-01-15T22:54:27.118Z,2.90
2023-01-15T22:56:53.917Z,3.50
2023-01-15T22:59:20.613Z,2.95
2023-01-15T23:01:47.802Z,3.08
2023-01-15T23:04:17.762Z,2.53
2023-01-15T23:06:45.088Z,2.83
2023-01-15T23:09:12.477Z,2.90
2023-01-15T23:11:40.007Z,2.70
2023-01-15T23:14:07.767Z,2.63
2023-01-15T23:16:34.876Z,2.58
2023-01-15T23:19:01.979Z,2.95
2023-01-15T23:21:29.146Z,2.42
2023-01-15T23:23:58.126Z,1.65
2023-01-15T23:26:26.709Z,2.05
2023-01-15T23:28:53.857Z,2.22
2023-01-15T23:31:21.179Z,2.13
2023-01-15T23:33:48.404Z,2.38
2023-01-15T23:36:15.651Z,3.15
2023-01-15T23:38:43.737Z,3.17
2023-01-15T23:41:14.199Z,3.28
2023-01-15T23:44:00.223Z,3.13
2023-01-15T23:46:35.121Z,2.28
2023-01-15T23:49:10.940Z,2.10
2023-01-15T23:51:38.386Z,2.13
2023-01-15T23:54:05.680Z,2.30
2023-01-15T23:56:33.455Z,1.40
2023-01-15T23:59:00.425Z,2.88
